map of MBA home
MBA - Airport
Location
City:  Mombasa, Kenya
Name:Moi International Airport
ICAO:HKMO
IATA:MBA

Details
Type:Airport (Aerodrome, Airfield)
Use:Public/Civil, International (customs port of entry)
Latitude:402'05"S (-4.034832)
Longitude:3935'39"E (39.594250)
Datum:WGS 1984
Elevation:200 ft (61 m)
Variation:1.00W (WMM2015v2 magnetic declination)
-0.01 annual change
Runways:2
Longest:10991 × 151 ft (3350 × 46 m), paved

Time
Time Zone:UTC+3
Local Time:

Weather
METAR:HKMO 041200Z 09011KT 9999 FEW027 31/22 Q1010 NOSIG
TAF:HKMO 032300Z 0400/0506 33005KT 9999 SCT020
BECMG 0409/0415 09010KT FEW026
BECMG 0418/0421 07005KT FEW023
BECMG 0500/0506 34005KT BKN020

Related Locations
Nearby:
Farthest:NHV: 11548 mi / 18585 km
Nuku Hiva, Marquesas Islands, PF

Find:

   beyond  
but within

Other Information
Maps:
NOTAMs:
Links:
Sources:

  
  • flag of Kenya
  

Airport Diagram

Airport diagram for MBA

Larger airport diagram (OBSOLETE) from NGA

Sectional Chart

Flight Planning
at skyvector.com

Satellite Image

Google Maps Satellite view

 

Copyright © 2004-2019 Karl L. Swartz. All rights reserved.
The Great Circle Mapper name and logo are trademarks of the Great Circle Mapper.
All other trademarks mentioned herein belong to their respective owners.
Please see credits for attibutions and further copyright information.

  Follow gcmap on Facebook Follow gcmap on Twitter GCmap on LinkedIn

hCard Microformat

Geo Microformat